Ocean Liberty — WDE2762 — position and weather

sailwx.info

Track history (hours):
 
Tides and Currents Weather Stations Pressure Air Temp Water Temp Dewpoint Dewpoint Depression Visibility Wind Speed Wind Dir Waves Ship Positions

Ocean Liberty

Owner: Marine Spill Response Corporation, Long Beach, CA. More information available from US FCC via Universal Licensing System and Coast Guard Vessel Documentation Center.

Last reported at 2017-Jun-21 19:48 UTC. Time now 2017-Jun-25 22:42 UTC.
Position N 33°46' W 118°13'.

; draft 2 m.

Type: Pollution control. MMSI: 367329330.

Date/timePositionNaut miles runAvg speedWind from/ knotsBaromVisibWave heightAir tempDewpointWater temp
2017-Jun-21 19:48N 33°46' W 118°13'0 0.0
2017-Jun-21 19:30N 33°46' W 118°13'1 2.5
2017-Jun-21 19:00N 33°45' W 118°13'3 6.5
2017-Jun-21 18:30N 33°43' W 118°16'1 1.2
2017-Jun-21 18:00N 33°44' W 118°16'0 0.9
2017-Jun-21 17:30N 33°44' W 118°16'3 6.0
2017-Jun-21 17:00N 33°45' W 118°13'1 1.6
2017-Jun-21 16:10N 33°46' W 118°13'0 0.0
2017-Jun-21 15:57N 33°46' W 118°13'0 0.0
2017-Jun-21 15:10N 33°46' W 118°13'0 0.0
2017-Jun-21 15:00N 33°46' W 118°13'0 0.0
2017-Jun-21 14:30N 33°46' W 118°13'  
2017-Jun-14 18:18N 33°46' W 118°13'  
Track history (hours):
 
Tides and Currents Weather Stations Pressure Air Temp Water Temp Dewpoint Dewpoint Depression Visibility Wind Speed Wind Dir Waves Ship Positions

Ocean Liberty

Owner: Marine Spill Response Corporation, Long Beach, CA. More information available from US FCC via Universal Licensing System and Coast Guard Vessel Documentation Center.

Last reported at 2017-Jun-21 19:48 UTC. Time now 2017-Jun-25 22:42 UTC.
Position N 33°46' W 118°13'.

; draft 2 m.

Type: Pollution control. MMSI: 367329330.

Date/timePositionNaut miles runAvg speedWind from/ knotsBaromVisibWave heightAir tempDewpointWater temp
2017-Jun-21 19:48N 33°46' W 118°13'0 0.0
2017-Jun-21 19:30N 33°46' W 118°13'1 2.5
2017-Jun-21 19:00N 33°45' W 118°13'3 6.5
2017-Jun-21 18:30N 33°43' W 118°16'1 1.2
2017-Jun-21 18:00N 33°44' W 118°16'0 0.9
2017-Jun-21 17:30N 33°44' W 118°16'3 6.0
2017-Jun-21 17:00N 33°45' W 118°13'1 1.6
2017-Jun-21 16:10N 33°46' W 118°13'0 0.0
2017-Jun-21 15:57N 33°46' W 118°13'0 0.0
2017-Jun-21 15:10N 33°46' W 118°13'0 0.0
2017-Jun-21 15:00N 33°46' W 118°13'0 0.0
2017-Jun-21 14:30N 33°46' W 118°13'  
2017-Jun-14 18:18N 33°46' W 118°13'  

Dump ship's entire track history